createdAt,value
2018-06-14T00:01:08.359Z,1.62
2018-06-14T00:03:35.612Z,1.73
2018-06-14T00:06:02.763Z,1.30
2018-06-14T00:08:29.812Z,1.65
2018-06-14T00:10:57.270Z,1.75
2018-06-14T00:13:24.323Z,1.55
2018-06-14T00:15:51.265Z,1.75
2018-06-14T00:18:18.827Z,1.77
2018-06-14T00:20:45.874Z,1.55
2018-06-14T00:23:12.928Z,1.60
2018-06-14T00:25:40.079Z,1.35
2018-06-14T00:28:07.125Z,1.48
2018-06-14T00:30:34.173Z,1.52
2018-06-14T00:33:01.227Z,1.60
2018-06-14T00:35:28.211Z,1.50
2018-06-14T00:37:55.113Z,1.60
2018-06-14T00:40:22.161Z,1.20
2018-06-14T00:42:49.215Z,1.10
2018-06-14T00:45:16.257Z,1.50
2018-06-14T00:47:43.336Z,1.20
2018-06-14T00:50:10.292Z,1.30
2018-06-14T00:52:37.300Z,1.02
2018-06-14T00:55:05.374Z,1.40
2018-06-14T00:57:32.428Z,1.58
2018-06-14T00:59:59.473Z,1.40
2018-06-14T01:02:26.456Z,1.60
2018-06-14T01:04:53.477Z,1.40
2018-06-14T01:07:20.514Z,1.30
2018-06-14T01:09:47.568Z,1.48
2018-06-14T01:12:14.613Z,1.55
2018-06-14T01:14:41.660Z,1.30
2018-06-14T01:17:08.715Z,1.40
2018-06-14T01:19:35.655Z,1.40
2018-06-14T01:22:02.648Z,1.30
2018-06-14T01:24:29.649Z,1.40
2018-06-14T01:26:56.706Z,1.52
2018-06-14T01:29:23.953Z,1.25
2018-06-14T01:31:51.005Z,1.20
2018-06-14T01:34:18.049Z,1.30
2018-06-14T01:36:45.098Z,1.20
2018-06-14T01:39:12.248Z,1.20
2018-06-14T01:41:39.348Z,1.25
2018-06-14T01:44:06.345Z,1.20
2018-06-14T01:46:33.915Z,1.30
2018-06-14T01:49:00.956Z,1.17
2018-06-14T01:51:28.722Z,1.42
2018-06-14T01:53:55.672Z,1.60
2018-06-14T01:56:22.717Z,1.15
2018-06-14T01:58:49.764Z,1.12
2018-06-14T02:01:16.818Z,1.45
2018-06-14T02:03:43.860Z,1.30
2018-06-14T02:06:10.911Z,1.40
2018-06-14T02:08:37.966Z,1.30
2018-06-14T02:11:05.008Z,1.20
2018-06-14T02:13:32.062Z,1.10
2018-06-14T02:15:59.115Z,1.12
2018-06-14T02:18:26.158Z,1.30
2018-06-14T02:20:53.107Z,1.23
2018-06-14T02:23:20.150Z,1.30
2018-06-14T02:25:47.201Z,1.17
2018-06-14T02:28:14.256Z,1.20
2018-06-14T02:30:41.192Z,1.05
2018-06-14T02:33:08.250Z,1.20
2018-06-14T02:35:35.288Z,1.00
2018-06-14T02:38:02.338Z,0.82
2018-06-14T02:40:29.392Z,1.05
2018-06-14T02:42:56.436Z,1.02
2018-06-14T02:45:23.483Z,1.00
2018-06-14T02:47:50.430Z,1.00
2018-06-14T02:50:17.479Z,0.93
2018-06-14T02:52:44.533Z,0.90
2018-06-14T02:55:11.577Z,0.90
2018-06-14T02:57:38.624Z,1.00
2018-06-14T03:00:05.609Z,0.82
2018-06-14T03:02:32.619Z,0.80
2018-06-14T03:04:59.672Z,0.82
2018-06-14T03:07:26.718Z,1.00
2018-06-14T03:09:53.765Z,0.90
2018-06-14T03:12:20.710Z,1.23
2018-06-14T03:14:47.761Z,0.93
2018-06-14T03:17:15.121Z,0.88
2018-06-14T03:19:42.166Z,0.85
2018-06-14T03:22:09.519Z,0.82
2018-06-14T03:24:36.671Z,1.00
2018-06-14T03:27:04.742Z,0.90
2018-06-14T03:29:32.861Z,1.00
2018-06-14T03:31:59.873Z,1.08
2018-06-14T03:34:26.912Z,1.00
2018-06-14T03:36:54.679Z,1.15
2018-06-14T03:39:22.340Z,1.00
2018-06-14T03:41:49.395Z,0.93
2018-06-14T03:44:16.441Z,1.02
2018-06-14T03:46:43.489Z,1.12
2018-06-14T03:49:10.542Z,0.95
2018-06-14T03:51:39.665Z,0.90
2018-06-14T03:54:06.685Z,1.00
2018-06-14T03:56:33.731Z,0.80
2018-06-14T03:59:00.713Z,1.00
2018-06-14T04:01:27.725Z,0.90
2018-06-14T04:03:54.804Z,0.90
2018-06-14T04:06:21.826Z,0.93
2018-06-14T04:08:48.870Z,0.80
2018-06-14T04:11:15.921Z,0.85
2018-06-14T04:13:42.973Z,1.00
2018-06-14T04:16:10.018Z,0.75
2018-06-14T04:18:37.114Z,0.80
2018-06-14T04:21:04.215Z,1.02
2018-06-14T04:23:31.270Z,1.02
2018-06-14T04:25:58.312Z,0.90
2018-06-14T04:28:25.362Z,1.00
2018-06-14T04:30:52.415Z,1.02
2018-06-14T04:33:19.462Z,0.95
2018-06-14T04:35:46.509Z,0.88
2018-06-14T04:38:13.561Z,1.00
2018-06-14T04:40:40.603Z,1.10
2018-06-14T04:43:07.655Z,0.88
2018-06-14T04:45:37.574Z,0.88
2018-06-14T04:48:06.051Z,0.93
2018-06-14T04:50:33.102Z,0.98
2018-06-14T04:53:00.126Z,0.95
2018-06-14T04:55:28.120Z,0.93
2018-06-14T04:57:55.270Z,1.10
2018-06-14T05:00:22.319Z,1.00
2018-06-14T05:02:49.373Z,0.90
2018-06-14T05:05:16.417Z,0.93
2018-06-14T05:07:43.467Z,0.80
2018-06-14T05:10:11.134Z,0.90
2018-06-14T05:12:40.949Z,0.80
2018-06-14T05:42:49.879Z,0.77
2018-06-14T05:45:16.913Z,0.90
2018-06-14T05:47:54.720Z,0.90
2018-06-14T05:52:57.619Z,0.80
2018-06-14T05:55:25.692Z,0.88
2018-06-14T05:57:52.743Z,1.02
2018-06-14T06:00:19.732Z,0.77
2018-06-14T06:02:46.694Z,1.27
2018-06-14T06:05:13.784Z,1.00
2018-06-14T06:07:40.832Z,0.85
2018-06-14T06:10:08.290Z,1.00
2018-06-14T06:12:35.274Z,0.90
2018-06-14T06:15:02.287Z,0.90
2018-06-14T06:17:29.232Z,0.80
2018-06-14T06:19:56.349Z,1.10
2018-06-14T06:22:23.270Z,1.30
2018-06-14T06:24:50.275Z,0.90
2018-06-14T06:27:17.226Z,1.10
2018-06-14T06:29:44.170Z,0.88
2018-06-14T06:32:11.215Z,1.00
2018-06-14T06:34:38.263Z,1.00
2018-06-14T06:37:05.149Z,0.80
2018-06-14T06:39:32.258Z,0.70
2018-06-14T06:41:59.409Z,0.55
2018-06-14T06:44:28.367Z,0.65
2018-06-14T06:46:55.294Z,0.82
2018-06-14T06:49:22.399Z,0.80
2018-06-14T06:51:50.529Z,1.42
2018-06-14T06:54:17.526Z,0.85
2018-06-14T06:56:44.517Z,0.80
2018-06-14T06:59:11.618Z,1.00
2018-06-14T07:01:38.675Z,1.10
2018-06-14T07:04:05.657Z,0.62
2018-06-14T07:06:32.738Z,0.95
2018-06-14T07:08:59.817Z,1.00
2018-06-14T07:11:26.871Z,0.80
2018-06-14T07:13:54.012Z,0.70
2018-06-14T07:16:21.059Z,0.80
2018-06-14T07:18:48.210Z,0.82
2018-06-14T07:21:15.265Z,0.80
2018-06-14T07:23:42.307Z,0.80
2018-06-14T07:26:10.382Z,0.80
2018-06-14T07:28:40.260Z,0.80
2018-06-14T07:31:08.376Z,0.70
2018-06-14T07:33:35.357Z,0.75
2018-06-14T07:36:02.310Z,1.02
2018-06-14T07:38:29.331Z,0.80
2018-06-14T07:40:56.359Z,0.70
2018-06-14T07:43:23.405Z,0.70
2018-06-14T07:45:50.604Z,0.62
2018-06-14T07:48:19.040Z,0.80
2018-06-14T07:50:46.088Z,0.65
2018-06-14T07:53:13.146Z,0.70
2018-06-14T07:55:40.186Z,0.80
2018-06-14T07:58:07.235Z,0.90
2018-06-14T08:00:35.139Z,0.70
2018-06-14T08:03:03.165Z,0.70
2018-06-14T08:05:30.211Z,0.60
2018-06-14T08:07:57.199Z,0.60
2018-06-14T08:10:24.925Z,0.70
2018-06-14T08:12:51.873Z,0.55
2018-06-14T08:15:19.068Z,0.60
2018-06-14T08:17:46.207Z,0.62
2018-06-14T08:20:13.220Z,0.60
2018-06-14T08:22:40.267Z,0.50
2018-06-14T08:25:07.321Z,0.55
2018-06-14T08:27:34.364Z,0.80
2018-06-14T08:30:01.413Z,0.60
2018-06-14T08:32:28.469Z,0.60
2018-06-14T08:34:55.511Z,0.70
2018-06-14T08:37:22.770Z,0.50
2018-06-14T08:39:51.763Z,0.70
2018-06-14T08:42:19.116Z,0.60
2018-06-14T08:44:46.176Z,0.40
2018-06-14T08:47:13.216Z,0.73
2018-06-14T08:49:40.921Z,0.57
2018-06-14T08:52:08.071Z,0.60
2018-06-14T08:54:35.076Z,0.65
2018-06-14T08:57:03.762Z,0.80
2018-06-14T08:59:30.844Z,0.82
2018-06-14T09:01:57.857Z,0.90
2018-06-14T09:04:26.080Z,0.80
2018-06-14T09:06:53.284Z,1.00
2018-06-14T09:09:20.232Z,1.08
2018-06-14T09:11:47.282Z,0.82
2018-06-14T09:14:14.340Z,0.70
2018-06-14T09:16:41.793Z,0.80
2018-06-14T09:19:08.835Z,0.60
2018-06-14T09:21:35.993Z,0.60
2018-06-14T09:24:09.390Z,0.70
2018-06-14T09:26:37.046Z,0.47
2018-06-14T09:29:04.096Z,0.70
2018-06-14T09:31:31.085Z,0.65
2018-06-14T09:33:58.091Z,0.80
2018-06-14T09:36:25.144Z,0.55
2018-06-14T09:38:52.130Z,0.70
2018-06-14T09:41:19.140Z,0.82
2018-06-14T09:43:46.182Z,0.77
2018-06-14T09:46:13.233Z,0.88
2018-06-14T09:48:40.526Z,0.65
2018-06-14T09:51:09.074Z,0.60
2018-06-14T09:53:36.123Z,0.47
2018-06-14T09:56:03.166Z,0.47
2018-06-14T09:58:30.626Z,0.45
2018-06-14T10:00:57.673Z,0.70
2018-06-14T12:47:51.398Z,0.80
2018-06-14T12:50:21.748Z,0.90
2018-06-14T12:55:39.187Z,1.10
2018-06-14T12:58:07.056Z,1.00
2018-06-14T13:00:37.438Z,0.90
2018-06-14T13:03:04.842Z,1.15
2018-06-14T13:05:33.117Z,1.05
2018-06-14T13:08:00.163Z,1.10
2018-06-14T13:10:31.219Z,0.82
2018-06-14T13:13:12.961Z,0.90
2018-06-14T13:15:43.694Z,1.10
2018-06-14T13:18:11.096Z,1.00
2018-06-14T13:24:51.655Z,1.02
2018-06-14T13:27:26.098Z,0.90
2018-06-14T13:29:54.393Z,0.70
2018-06-14T13:40:50.583Z,1.00
2018-06-14T14:02:06.604Z,0.85
2018-06-14T14:04:36.410Z,1.00
2018-06-14T14:07:04.483Z,0.70
2018-06-14T14:09:35.219Z,0.70
2018-06-14T14:12:02.369Z,0.90
2018-06-14T14:14:29.531Z,0.90
2018-06-14T14:16:56.675Z,1.00
2018-06-14T14:19:23.656Z,0.80
2018-06-14T14:21:50.875Z,0.90
2018-06-14T14:24:17.924Z,0.90
2018-06-14T14:26:45.484Z,1.00
2018-06-14T14:29:12.528Z,0.80
2018-06-14T14:31:39.576Z,1.00
2018-06-14T14:34:06.633Z,1.00
2018-06-14T14:36:34.597Z,1.08
2018-06-14T14:39:01.761Z,0.80
2018-06-14T14:41:28.796Z,0.90
2018-06-14T14:46:29.759Z,1.10
2018-06-14T14:48:57.928Z,0.80
2018-06-14T14:51:24.983Z,0.90
2018-06-14T14:53:52.028Z,0.98
2018-06-14T14:56:20.100Z,0.98
2018-06-14T14:58:47.557Z,1.20
2018-06-14T15:01:14.604Z,1.00
2018-06-14T15:06:40.243Z,0.98
2018-06-14T15:09:07.961Z,0.90
2018-06-14T15:11:34.998Z,0.90
2018-06-14T15:14:02.005Z,1.00
2018-06-14T15:16:30.997Z,1.12
2018-06-14T15:18:58.147Z,1.00
2018-06-14T15:21:25.489Z,1.17
2018-06-14T15:23:55.543Z,0.90
2018-06-14T15:26:22.575Z,1.02
2018-06-14T15:28:49.603Z,1.05
2018-06-14T15:31:16.651Z,0.93
2018-06-14T15:33:43.697Z,1.00
2018-06-14T15:36:10.795Z,1.02
2018-06-14T15:38:38.922Z,1.10
2018-06-14T15:41:05.973Z,1.17
2018-06-14T15:47:05.724Z,1.33
2018-06-14T15:49:33.475Z,1.20
2018-06-14T15:52:00.626Z,1.30
2018-06-14T15:54:27.783Z,1.37
2018-06-14T15:56:54.821Z,1.30
2018-06-14T15:59:21.869Z,1.30
2018-06-14T16:01:49.021Z,1.20
2018-06-14T16:04:16.381Z,1.50
2018-06-14T16:06:43.349Z,1.30
2018-06-14T16:09:10.470Z,1.67
2018-06-14T16:11:39.159Z,1.15
2018-06-14T16:14:06.618Z,1.23
2018-06-14T16:16:33.769Z,1.20
2018-06-14T16:19:00.822Z,1.40
2018-06-14T16:21:27.866Z,1.30
2018-06-14T16:23:55.971Z,1.40
2018-06-14T16:26:23.246Z,1.30
2018-06-14T16:28:50.241Z,1.50
2018-06-14T16:31:17.703Z,1.48
2018-06-14T16:33:44.683Z,1.30
2018-06-14T16:36:12.867Z,1.23
2018-06-14T16:38:41.512Z,1.30
2018-06-14T16:41:10.229Z,1.35
2018-06-14T16:43:39.117Z,1.33
2018-06-14T16:46:11.873Z,1.50
2018-06-14T16:48:38.967Z,1.25
2018-06-14T16:51:08.269Z,1.40
2018-06-14T16:53:36.703Z,1.40
2018-06-14T16:56:07.072Z,1.30
2018-06-14T16:58:36.640Z,1.25
2018-06-14T17:01:04.913Z,1.60
2018-06-14T17:03:33.544Z,2.00
2018-06-14T17:06:00.853Z,2.60
2018-06-14T17:08:28.457Z,1.75
2018-06-14T17:10:56.798Z,1.40
2018-06-14T17:13:25.235Z,1.60
2018-06-14T17:15:53.081Z,1.30
2018-06-14T17:18:20.236Z,1.30
2018-06-14T17:20:49.105Z,1.40
2018-06-14T17:23:18.744Z,1.30
2018-06-14T17:25:45.894Z,1.50
2018-06-14T17:28:13.096Z,1.37
2018-06-14T17:30:41.169Z,1.58
2018-06-14T17:33:08.423Z,1.40
2018-06-14T17:35:35.615Z,1.60
2018-06-14T17:38:02.723Z,1.60
2018-06-14T17:40:29.874Z,1.75
2018-06-14T17:42:57.677Z,2.00
2018-06-14T17:45:24.997Z,1.35
2018-06-14T17:47:52.250Z,1.42
2018-06-14T17:50:19.861Z,1.27
2018-06-14T17:52:48.087Z,1.40
2018-06-14T17:55:15.238Z,1.55
2018-06-14T17:57:43.005Z,1.20
2018-06-14T18:00:12.372Z,1.37
2018-06-14T18:02:40.380Z,1.42
2018-06-14T18:05:08.052Z,1.70
2018-06-14T18:07:35.469Z,1.35
2018-06-14T18:10:02.861Z,1.30
2018-06-14T18:12:31.132Z,1.50
2018-06-14T18:14:58.491Z,1.33
2018-06-14T18:17:25.684Z,1.33
2018-06-14T18:19:53.208Z,1.50
2018-06-14T18:22:21.426Z,1.48
2018-06-14T18:24:48.986Z,1.20
2018-06-14T18:27:16.276Z,1.35
2018-06-14T18:29:43.808Z,1.20
2018-06-14T18:32:12.136Z,1.30
2018-06-14T18:34:40.920Z,1.37
2018-06-14T18:37:09.333Z,1.50
2018-06-14T18:39:36.554Z,1.40
2018-06-14T18:42:09.235Z,1.35
2018-06-14T18:44:37.755Z,1.40
2018-06-14T18:47:09.093Z,1.35
2018-06-14T18:49:37.290Z,1.33
2018-06-14T18:52:05.517Z,1.40
2018-06-14T18:54:34.648Z,1.37
2018-06-14T18:57:04.456Z,1.65
2018-06-14T18:59:34.683Z,1.35
2018-06-14T19:02:07.946Z,1.40
2018-06-14T19:04:36.611Z,1.40
2018-06-14T19:07:09.649Z,1.35
2018-06-14T19:09:37.187Z,1.23
2018-06-14T19:12:05.354Z,1.40
2018-06-14T19:14:33.872Z,1.37
2018-06-14T19:17:03.314Z,1.50
2018-06-14T19:19:32.064Z,1.40
2018-06-14T19:22:00.358Z,1.30
2018-06-14T19:24:29.736Z,1.40
2018-06-14T19:26:59.185Z,1.30
2018-06-14T19:29:28.526Z,1.40
2018-06-14T19:31:57.309Z,1.40
2018-06-14T19:34:25.614Z,1.37
2018-06-14T19:36:55.964Z,1.60
2018-06-14T19:39:29.653Z,1.30
2018-06-14T19:41:58.817Z,1.73
2018-06-14T19:44:27.441Z,1.40
2018-06-14T19:46:54.962Z,1.70
2018-06-14T19:49:26.165Z,1.40
2018-06-14T19:51:55.514Z,1.50
2018-06-14T19:54:23.177Z,1.50
2018-06-14T19:56:51.658Z,1.70
2018-06-14T19:59:21.264Z,1.40
2018-06-14T20:01:54.898Z,1.73
2018-06-14T20:04:25.912Z,1.52
2018-06-14T20:06:54.288Z,1.60
2018-06-14T20:09:25.527Z,1.50
2018-06-14T20:11:55.516Z,1.60
2018-06-14T20:14:25.483Z,1.62
2018-06-14T20:16:54.017Z,1.50
2018-06-14T20:19:25.153Z,1.70
2018-06-14T20:21:55.939Z,1.60
2018-06-14T20:24:26.566Z,1.80
2018-06-14T20:26:56.107Z,1.73
2018-06-14T20:29:25.004Z,1.90
2018-06-14T20:31:53.447Z,1.92
2018-06-14T20:34:21.929Z,1.62
2018-06-14T20:36:51.436Z,1.80
2018-06-14T20:39:20.058Z,2.08
2018-06-14T20:41:50.075Z,2.15
2018-06-14T20:44:19.489Z,1.92
2018-06-14T20:46:47.008Z,1.80
2018-06-14T20:49:14.618Z,1.92
2018-06-14T20:51:47.104Z,1.92
2018-06-14T20:54:14.648Z,2.00
2018-06-14T20:56:42.092Z,2.03
2018-06-14T20:59:09.873Z,1.87
2018-06-14T21:01:38.565Z,2.03
2018-06-14T21:04:05.974Z,2.03
2018-06-14T21:06:34.913Z,2.03
2018-06-14T21:09:03.121Z,2.15
2018-06-14T21:11:30.646Z,1.98
2018-06-14T21:13:57.799Z,1.90
2018-06-14T21:16:24.747Z,2.05
2018-06-14T21:18:51.893Z,2.00
2018-06-14T21:21:18.942Z,2.17
2018-06-14T21:23:45.999Z,2.17
2018-06-14T21:26:14.996Z,2.08
2018-06-14T21:28:42.237Z,2.00
2018-06-14T21:31:09.184Z,2.20
2018-06-14T21:33:36.233Z,2.22
2018-06-14T21:36:03.386Z,2.22
2018-06-14T21:38:30.535Z,2.50
2018-06-14T21:40:57.675Z,2.40
2018-06-14T21:43:24.633Z,2.30
2018-06-14T21:45:51.682Z,2.20
2018-06-14T21:48:18.735Z,2.37
2018-06-14T21:50:45.779Z,2.40
2018-06-14T21:53:12.781Z,2.37
2018-06-14T21:55:39.773Z,2.50
2018-06-14T21:58:06.822Z,2.58
2018-06-14T22:00:34.509Z,2.35
2018-06-14T22:03:01.740Z,2.67
2018-06-14T22:05:28.685Z,2.40
2018-06-14T22:07:55.733Z,2.42
2018-06-14T22:10:22.716Z,2.50
2018-06-14T22:12:50.793Z,2.40
2018-06-14T22:15:17.800Z,2.70
2018-06-14T22:17:44.746Z,2.60
2018-06-14T22:20:11.796Z,2.40
2018-06-14T22:22:38.849Z,2.80
2018-06-14T22:25:05.893Z,2.80
2018-06-14T22:27:32.942Z,2.53
2018-06-14T22:29:59.999Z,2.75
2018-06-14T22:32:27.039Z,2.70
2018-06-14T22:35:00.032Z,2.70
2018-06-14T22:37:27.076Z,2.87
2018-06-14T22:39:54.022Z,3.03
2018-06-14T22:42:20.974Z,3.58
2018-06-14T22:44:48.016Z,3.00
2018-06-14T22:47:15.069Z,2.85
2018-06-14T22:49:42.118Z,2.90
2018-06-14T22:52:09.162Z,2.85
2018-06-14T22:54:36.063Z,2.85
2018-06-14T22:57:03.054Z,2.83
2018-06-14T22:59:30.108Z,2.67
2018-06-14T23:01:57.154Z,2.80
2018-06-14T23:04:24.201Z,2.55
2018-06-14T23:06:52.481Z,3.10
2018-06-14T23:09:19.526Z,3.00
2018-06-14T23:11:46.574Z,3.00
2018-06-14T23:14:13.627Z,2.85
2018-06-14T23:16:40.568Z,3.10
2018-06-14T23:19:07.629Z,3.17
2018-06-14T23:21:34.668Z,3.20
2018-06-14T23:24:01.715Z,3.35
2018-06-14T23:26:28.769Z,2.67
2018-06-14T23:28:55.854Z,3.20
2018-06-14T23:31:22.861Z,2.90
2018-06-14T23:33:49.808Z,3.30
2018-06-14T23:36:16.854Z,3.08
2018-06-14T23:38:43.909Z,3.78
2018-06-14T23:41:10.952Z,3.03
2018-06-14T23:43:38.005Z,3.20
2018-06-14T23:46:05.462Z,3.17
2018-06-14T23:48:32.406Z,2.90
2018-06-14T23:50:59.455Z,3.10
2018-06-14T23:53:26.708Z,3.47
2018-06-14T23:55:53.761Z,3.20
2018-06-14T23:58:26.439Z,3.42
